Time;durP1;ratioP1;P1;durP2;ratioP2;P2;SDS_P1;SDS_P2;PMS_P1;PMS_P2;Temp;Humidity;BMP_temperature;BMP_pressure;BME280_temperature;BME280_humidity;BME280_pressure;Samples;Min_cycle;Max_cycle;Signal;HPM_P1;HPM_P2
2021/11/22 00:00:35;;;;;;;;;45.80;35.40;;;;;14.69;45.01;98323.72;6239714;28;97213;-67
2021/11/22 00:03:39;;;;;;;;;45.60;36.00;;;;;14.67;45.02;98324.00;6239679;28;97051;-67
2021/11/22 00:06:43;;;;;;;;;45.00;36.80;;;;;14.65;45.16;98322.63;6239829;28;97182;-65
2021/11/22 00:09:47;;;;;;;;;48.00;38.00;;;;;14.58;45.09;98316.59;6239803;28;96857;-66
2021/11/22 00:12:51;;;;;;;;;48.60;37.80;;;;;14.70;44.95;98323.47;6221349;28;96921;-65
2021/11/22 00:15:55;;;;;;;;;46.40;37.00;;;;;14.67;45.07;98321.28;6221201;28;97022;-66
2021/11/22 00:18:58;;;;;;;;;49.00;38.00;;;;;14.66;45.12;98314.22;6239547;28;96433;-64
2021/11/22 00:22:05;;;;;;;;;44.60;36.60;;;;;14.69;45.09;98318.31;6204482;28;98712;-66
2021/11/22 00:25:09;;;;;;;;;44.20;35.00;;;;;14.68;45.16;98328.34;6239453;28;96398;-67
2021/11/22 00:28:13;;;;;;;;;47.25;37.25;;;;;14.70;45.08;98328.91;6220827;28;97959;-64
2021/11/22 00:31:37;;;;;;;;;46.60;38.00;;;;;14.71;45.22;98335.94;6187196;28;97238;-65
2021/11/22 00:34:55;;;;;;;;;47.00;38.00;;;;;14.72;45.06;98347.63;6221368;28;97248;-65
2021/11/22 00:38:12;;;;;;;;;48.00;37.50;;;;;14.67;45.07;98345.69;6238072;28;97361;-67
2021/11/22 00:41:16;;;;;;;;;49.25;38.25;;;;;14.68;45.10;98354.66;6220669;28;97693;-67
2021/11/22 00:44:21;;;;;;;;;48.60;37.00;;;;;14.67;44.95;98353.84;6235131;28;97104;-67
2021/11/22 00:47:24;;;;;;;;;49.00;38.60;;;;;14.66;45.15;98351.41;6176864;28;96679;-65
2021/11/22 00:50:29;;;;;;;;;45.60;36.00;;;;;14.66;45.06;98354.13;6189265;28;96496;-67
2021/11/22 00:53:34;;;;;;;;;49.00;38.80;;;;;14.63;45.12;98362.75;6189420;28;98064;-66
2021/11/22 00:56:37;;;;;;;;;49.20;39.00;;;;;14.64;45.15;98381.50;6189919;28;97985;-65
2021/11/22 00:59:41;;;;;;;;;49.80;37.80;;;;;14.62;45.37;98372.78;6188997;28;97184;-65
2021/11/22 01:02:45;;;;;;;;;45.00;37.60;;;;;14.41;45.29;98337.66;6171059;28;96915;-64
2021/11/22 01:05:48;;;;;;;;;49.00;39.00;;;;;14.62;45.41;98377.38;6188248;28;96983;-67
2021/11/22 01:08:53;;;;;;;;;46.50;37.75;;;;;14.60;45.28;98377.66;6188265;28;97440;-67
2021/11/22 01:11:56;;;;;;;;;49.50;38.00;;;;;14.60;45.28;98374.97;6188797;28;97224;-67
2021/11/22 01:15:02;;;;;;;;;47.00;38.00;;;;;14.57;45.34;98370.03;6188595;28;97427;-64
2021/11/22 01:18:06;;;;;;;;;49.75;39.00;;;;;14.61;45.35;98367.63;6189151;28;97540;-66
2021/11/22 01:21:09;;;;;;;;;48.20;38.00;;;;;14.57;45.34;98370.03;6188739;28;96710;-67
2021/11/22 01:24:14;;;;;;;;;48.25;38.00;;;;;14.50;45.69;98376.78;6188460;28;97211;-67
2021/11/22 01:27:18;;;;;;;;;47.00;38.00;;;;;14.45;45.66;98369.41;6188798;28;97474;-67
2021/11/22 01:30:22;;;;;;;;;50.00;39.50;;;;;14.45;45.71;98374.00;6188236;28;97531;-64
2021/11/22 01:33:26;;;;;;;;;49.00;38.75;;;;;14.40;45.85;98373.97;6188850;28;96566;-64
2021/11/22 01:36:30;;;;;;;;;48.67;38.33;;;;;14.32;46.21;98367.91;6187993;28;97527;-67
2021/11/22 01:39:35;;;;;;;;;48.00;38.60;;;;;14.30;46.34;98374.66;6188161;28;97159;-64
2021/11/22 01:42:40;;;;;;;;;49.40;38.00;;;;;14.32;46.13;98383.34;6170018;28;97064;-66
2021/11/22 01:45:45;;;;;;;;;49.40;38.40;;;;;14.28;46.34;98385.78;6175857;28;97452;-66
2021/11/22 01:48:52;;;;;;;;;50.20;40.00;;;;;14.28;46.24;98383.06;6213007;28;97064;-65
2021/11/22 01:51:56;;;;;;;;;49.33;40.33;;;;;14.29;46.32;98378.44;6213070;28;97990;-66
2021/11/22 01:55:01;;;;;;;;;48.60;39.40;;;;;14.29;46.38;98378.44;6211705;28;97484;-66
2021/11/22 01:58:05;;;;;;;;;47.20;38.80;;;;;14.22;46.40;98364.31;6205585;28;96699;-65
2021/11/22 02:01:09;;;;;;;;;52.00;41.00;;;;;14.18;46.37;98374.00;6186050;28;96622;-64
2021/11/22 02:04:13;;;;;;;;;48.50;40.25;;;;;14.02;46.65;98362.22;6202003;28;96997;-64
2021/11/22 02:07:17;;;;;;;;;52.00;41.00;;;;;14.06;46.82;98381.50;6177783;28;96805;-64
2021/11/22 02:10:23;;;;;;;;;51.20;40.20;;;;;14.07;46.76;98388.56;6167778;28;97806;-65
2021/11/22 02:13:27;;;;;;;;;53.20;40.80;;;;;14.09;46.72;98391.81;6187252;28;96816;-64
2021/11/22 02:16:31;;;;;;;;;50.80;40.00;;;;;14.05;46.77;98386.09;6189034;28;96949;-64
2021/11/22 02:19:38;;;;;;;;;49.75;40.00;;;;;13.99;47.05;98387.13;6212051;28;96565;-65
2021/11/22 02:22:45;;;;;;;;;51.00;40.00;;;;;14.03;46.81;98392.84;6212773;28;97443;-64
2021/11/22 02:25:48;;;;;;;;;53.20;41.40;;;;;14.03;46.89;98393.66;6212678;28;97492;-62
2021/11/22 02:28:52;;;;;;;;;51.50;38.75;;;;;14.01;46.73;98390.41;6177375;28;99645;-65
2021/11/22 02:31:55;;;;;;;;;52.20;40.20;;;;;13.97;46.90;98386.56;6211287;28;97329;-65
2021/11/22 02:35:00;;;;;;;;;50.33;40.00;;;;;13.97;46.74;98386.56;6194926;28;96712;-64
2021/11/22 02:38:04;;;;;;;;;53.00;40.00;;;;;13.93;46.88;98385.41;6212001;28;96745;-62
2021/11/22 02:41:10;;;;;;;;;46.60;38.20;;;;;13.90;46.99;98388.66;6212386;28;96520;-62
2021/11/22 02:44:14;;;;;;;;;52.00;41.00;;;;;13.88;46.91;98388.91;6211114;28;96817;-64
2021/11/22 02:47:17;;;;;;;;;49.60;39.60;;;;;13.86;46.97;98399.19;6211667;28;97732;-65
2021/11/22 02:50:22;;;;;;;;;50.20;39.00;;;;;13.83;46.86;98406.97;6191750;28;99438;-64
2021/11/22 02:53:28;;;;;;;;;52.00;41.00;;;;;13.78;47.09;98405.03;6212126;28;97475;-65
2021/11/22 02:56:33;;;;;;;;;53.00;39.50;;;;;13.75;47.14;98419.09;6193190;28;96622;-64
2021/11/22 02:59:39;;;;;;;;;49.50;39.00;;;;;13.71;47.31;98412.56;6212451;28;96437;-64
2021/11/22 03:02:43;;;;;;;;;48.60;39.00;;;;;13.70;47.17;98415.50;6201822;28;97393;-66
2021/11/22 03:05:48;;;;;;;;;52.00;41.40;;;;;13.70;47.21;98416.34;6187044;28;96910;-64
2021/11/22 03:08:51;;;;;;;;;49.00;40.00;;;;;13.68;47.38;98412.25;6169560;28;97368;-66
2021/11/22 03:11:56;;;;;;;;;46.50;38.50;;;;;13.67;47.36;98414.16;6186798;28;97566;-64
2021/11/22 03:14:59;;;;;;;;;49.60;40.00;;;;;13.65;47.38;98412.75;6186844;28;96475;-66
2021/11/22 03:18:02;;;;;;;;;52.25;42.25;;;;;13.57;47.55;98414.03;6170386;28;97046;-66
2021/11/22 03:21:07;;;;;;;;;51.67;41.00;;;;;13.55;47.44;98410.72;6187484;28;97141;-66
2021/11/22 03:24:11;;;;;;;;;53.40;42.00;;;;;13.49;47.56;98421.78;6187066;28;97450;-66
2021/11/22 03:27:14;;;;;;;;;52.80;40.40;;;;;13.45;47.97;98416.03;6186518;28;97509;-64
2021/11/22 03:30:19;;;;;;;;;53.00;41.60;;;;;13.41;47.81;98429.25;6184946;28;96657;-64
2021/11/22 03:33:22;;;;;;;;;52.00;41.00;;;;;13.41;47.88;98431.13;6215920;28;96425;-66
2021/11/22 03:36:28;;;;;;;;;51.80;40.80;;;;;13.41;47.84;98431.13;6216008;28;96559;-63
2021/11/22 03:39:33;;;;;;;;;53.00;42.50;;;;;13.40;47.94;98445.75;6215819;28;97147;-67
2021/11/22 03:42:41;;;;;;;;;57.00;43.00;;;;;13.38;48.00;98447.91;6216152;28;96539;-62
2021/11/22 03:45:47;;;;;;;;;53.80;42.00;;;;;13.36;48.11;98447.31;6197795;28;96588;-64
2021/11/22 03:48:52;;;;;;;;;56.40;41.60;;;;;13.33;48.28;98459.47;6215603;28;96759;-63
2021/11/22 03:51:56;;;;;;;;;52.67;42.67;;;;;13.29;48.37;98454.81;6204002;28;97143;-65
2021/11/22 03:55:00;;;;;;;;;53.50;41.50;;;;;13.31;48.08;98463.47;6171088;28;96529;-64
2021/11/22 03:58:04;;;;;;;;;52.00;42.00;;;;;13.20;48.41;98457.09;6188394;28;97492;-66
2021/11/22 04:01:08;;;;;;;;;53.00;41.20;;;;;13.29;48.45;98471.84;6186851;28;99622;-65
2021/11/22 04:04:12;;;;;;;;;53.60;42.60;;;;;13.33;48.49;98464.88;6219567;28;97111;-65
2021/11/22 04:07:17;;;;;;;;;55.60;43.20;;;;;13.29;48.48;98476.47;6238162;28;97279;-66
2021/11/22 04:10:20;;;;;;;;;55.20;41.60;;;;;13.26;48.63;98476.94;6220734;28;100230;-64
2021/11/22 04:13:24;;;;;;;;;56.25;43.00;;;;;13.30;48.41;98481.63;6221143;28;98386;-67
2021/11/22 04:16:27;;;;;;;;;58.80;43.20;;;;;13.31;48.64;98468.91;6219564;28;97157;-62
2021/11/22 04:19:31;;;;;;;;;53.75;43.00;;;;;13.31;48.50;98472.44;6193963;28;96526;-63
2021/11/22 04:22:36;;;;;;;;;56.00;43.00;;;;;13.28;48.68;98482.94;6214889;28;97012;-62
2021/11/22 04:25:40;;;;;;;;;51.80;41.00;;;;;13.27;48.66;98481.28;6196840;28;96923;-62
2021/11/22 04:28:43;;;;;;;;;54.50;42.50;;;;;13.26;48.85;98485.06;6214100;28;96421;-63
2021/11/22 04:31:49;;;;;;;;;57.60;42.00;;;;;13.31;48.65;98485.16;6203697;28;96990;-62
2021/11/22 04:34:52;;;;;;;;;51.80;41.40;;;;;13.35;48.40;98489.00;6196849;28;96824;-64
2021/11/22 04:37:58;;;;;;;;;54.60;43.00;;;;;13.35;48.42;98494.41;6213419;28;97017;-65
2021/11/22 04:41:01;;;;;;;;;52.20;41.20;;;;;13.34;48.44;98499.00;6212572;28;96857;-62
2021/11/22 04:44:05;;;;;;;;;56.00;42.00;;;;;13.31;48.57;98499.50;6213230;28;97575;-64
2021/11/22 04:47:12;;;;;;;;;52.00;42.00;;;;;13.29;48.43;98498.91;6184368;28;98489;-64
2021/11/22 04:50:17;;;;;;;;;53.20;42.00;;;;;13.35;48.57;98494.41;6214412;28;96920;-65
2021/11/22 04:53:23;;;;;;;;;51.20;41.00;;;;;13.36;48.41;98493.34;6214017;28;97132;-63
2021/11/22 04:56:26;;;;;;;;;53.80;41.00;;;;;13.42;48.28;98487.75;6168035;28;96853;-63
2021/11/22 04:59:29;;;;;;;;;56.00;41.80;;;;;13.45;48.31;98489.94;6205718;28;98046;-62
2021/11/22 05:02:33;;;;;;;;;51.20;41.60;;;;;13.43;48.42;98494.00;6203746;28;96724;-65
2021/11/22 05:05:36;;;;;;;;;50.80;40.80;;;;;13.38;48.59;98496.63;6218410;28;97198;-65
2021/11/22 05:08:41;;;;;;;;;52.40;40.60;;;;;13.41;48.26;98501.53;6194179;28;99646;-63
2021/11/22 05:11:44;;;;;;;;;53.40;41.00;;;;;13.41;48.25;98509.66;6194491;28;96979;-64
2021/11/22 05:14:48;;;;;;;;;49.60;40.00;;;;;13.26;48.18;98474.25;6203756;28;97531;-65
2021/11/22 05:17:51;;;;;;;;;50.60;41.40;;;;;13.51;48.22;98517.94;6213356;28;98023;-63
2021/11/22 05:20:55;;;;;;;;;49.60;40.00;;;;;13.54;48.36;98527.44;6213445;28;97257;-65
2021/11/22 05:24:00;;;;;;;;;53.60;42.20;;;;;13.56;48.26;98531.53;6213536;28;96742;-66
2021/11/22 05:27:04;;;;;;;;;47.50;39.00;;;;;13.58;48.39;98540.25;6212745;28;97351;-64
2021/11/22 05:30:10;;;;;;;;;54.00;42.20;;;;;13.64;48.24;98538.41;6202215;28;97437;-64
2021/11/22 05:33:14;;;;;;;;;52.00;41.40;;;;;13.67;48.09;98538.75;6186395;28;96924;-65
2021/11/22 05:36:17;;;;;;;;;57.00;42.20;;;;;13.55;47.95;98521.78;6188869;28;97382;-65
2021/11/22 05:39:22;;;;;;;;;55.40;43.40;;;;;13.67;48.09;98543.34;6193018;28;96641;-65
2021/11/22 05:42:25;;;;;;;;;56.00;42.40;;;;;13.62;48.23;98538.69;6193783;28;97095;-64
2021/11/22 05:45:28;;;;;;;;;56.00;43.40;;;;;13.63;48.22;98539.50;6213299;28;97515;-62
2021/11/22 05:48:32;;;;;;;;;56.80;43.80;;;;;13.59;48.45;98546.47;6213485;28;97108;-62
2021/11/22 05:51:35;;;;;;;;;55.20;43.80;;;;;13.61;48.33;98538.91;6203579;28;97201;-65
2021/11/22 05:54:49;;;;;;;;;57.50;44.00;;;;;13.64;48.22;98539.22;6205739;28;98019;-62
2021/11/22 05:57:52;;;;;;;;;57.00;43.80;;;;;13.59;48.40;98541.88;6153476;28;96632;-63
2021/11/22 06:00:56;;;;;;;;;57.00;44.60;;;;;13.60;48.40;98546.22;6184671;28;98543;-64
2021/11/22 06:03:59;;;;;;;;;62.00;46.00;;;;;13.61;48.55;98550.56;6186851;28;97515;-63
2021/11/22 06:07:03;;;;;;;;;56.60;44.00;;;;;13.61;48.49;98556.00;6197002;28;96690;-62
2021/11/22 06:10:09;;;;;;;;;59.75;44.75;;;;;13.65;48.44;98559.00;6198308;28;96724;-63
2021/11/22 06:13:13;;;;;;;;;54.00;44.00;;;;;13.68;48.42;98562.03;6202954;28;97229;-62
2021/11/22 06:16:16;;;;;;;;;53.00;42.20;;;;;13.73;48.38;98567.53;6211777;28;97047;-62
2021/11/22 06:19:20;;;;;;;;;55.00;42.40;;;;;13.75;48.17;98581.66;6194889;28;99667;-64
2021/11/22 06:22:24;;;;;;;;;55.00;44.00;;;;;13.76;48.41;98585.19;6184361;28;97359;-64
2021/11/22 06:25:29;;;;;;;;;49.25;39.00;;;;;13.78;48.81;98597.41;6186766;28;97995;-65
2021/11/22 06:28:32;;;;;;;;;52.60;42.00;;;;;13.80;48.27;98597.16;6187325;28;96884;-64
2021/11/22 06:31:38;;;;;;;;;52.25;40.75;;;;;13.80;48.18;98603.41;6192962;28;96734;-63
2021/11/22 06:34:42;;;;;;;;;50.20;39.80;;;;;13.84;47.97;98618.09;6176096;28;98591;-66
2021/11/22 06:37:46;;;;;;;;;52.60;40.00;;;;;13.92;47.77;98613.31;6192415;28;96896;-64
2021/11/22 06:40:51;;;;;;;;;51.20;39.60;;;;;13.93;47.83;98612.25;6210304;28;96802;-63
2021/11/22 06:43:55;;;;;;;;;51.60;40.00;;;;;13.92;47.70;98618.75;6192636;28;97172;-65
2021/11/22 06:46:58;;;;;;;;;47.40;38.80;;;;;13.93;47.71;98621.19;6210968;28;97392;-64
2021/11/22 06:50:04;;;;;;;;;49.00;38.00;;;;;13.80;47.62;98603.41;6209727;28;97626;-63
2021/11/22 06:53:07;;;;;;;;;48.40;38.00;;;;;14.03;47.78;98624.03;6172828;28;97285;-67
2021/11/22 06:56:12;;;;;;;;;49.00;39.00;;;;;14.06;47.52;98625.44;6167802;28;98521;-66
2021/11/22 06:59:15;;;;;;;;;47.00;37.60;;;;;14.04;47.34;98622.16;6185673;28;96452;-64
2021/11/22 07:02:19;;;;;;;;;45.00;37.00;;;;;13.97;47.59;98621.53;6168081;28;97477;-65
2021/11/22 07:05:25;;;;;;;;;47.00;38.80;;;;;14.00;47.62;98626.44;6169497;28;97461;-65
2021/11/22 07:08:29;;;;;;;;;50.40;38.40;;;;;14.03;47.45;98629.47;6190122;28;97282;-64
2021/11/22 07:11:34;;;;;;;;;47.60;37.40;;;;;14.09;47.50;98624.94;6208963;28;97739;-66
2021/11/22 07:14:40;;;;;;;;;47.20;36.00;;;;;14.12;47.46;98629.88;6195586;28;98510;-66
2021/11/22 07:17:43;;;;;;;;;47.40;36.40;;;;;14.12;47.50;98638.78;6213736;28;97451;-66
2021/11/22 07:20:47;;;;;;;;;46.50;36.50;;;;;14.15;47.36;98643.75;6197881;28;97480;-63
2021/11/22 07:23:51;;;;;;;;;42.80;35.80;;;;;14.18;47.30;98650.53;6213192;28;97343;-63
2021/11/22 07:26:56;;;;;;;;;47.00;36.00;;;;;14.17;47.38;98643.50;6194946;28;98475;-70
2021/11/22 07:30:00;;;;;;;;;47.00;35.20;;;;;14.15;47.54;98649.16;6213230;28;97445;-66
2021/11/22 07:33:03;;;;;;;;;45.60;35.40;;;;;14.13;47.46;98655.88;6206813;28;96564;-65
2021/11/22 07:36:07;;;;;;;;;44.00;35.00;;;;;14.16;47.58;98653.53;6195621;28;97294;-63
2021/11/22 07:39:10;;;;;;;;;47.40;38.00;;;;;14.19;47.76;98655.72;6182109;28;97193;-65
2021/11/22 07:42:16;;;;;;;;;48.00;36.40;;;;;14.22;47.82;98665.25;6196915;28;97403;-63
2021/11/22 07:45:19;;;;;;;;;44.75;35.00;;;;;14.07;47.63;98657.72;6189401;28;97556;-63
2021/11/22 07:48:22;;;;;;;;;46.60;35.60;;;;;14.21;47.63;98679.88;6211024;28;97350;-64
2021/11/22 07:51:26;;;;;;;;;43.40;34.60;;;;;14.21;47.65;98679.88;6193806;28;99541;-68
2021/11/22 07:54:29;;;;;;;;;45.40;35.40;;;;;14.19;48.16;98682.81;6212735;28;97155;-67
2021/11/22 07:57:34;;;;;;;;;47.60;36.60;;;;;14.07;48.33;98671.28;6193878;28;99501;-67
2021/11/22 08:00:37;;;;;;;;;45.00;36.00;;;;;14.21;48.49;98696.16;6193708;28;98521;-66
2021/11/22 08:03:41;;;;;;;;;45.00;35.00;;;;;14.23;48.67;98691.28;6194159;28;97214;-64
2021/11/22 08:06:47;;;;;;;;;42.60;34.20;;;;;14.22;48.72;98692.38;6189058;28;96993;-65
2021/11/22 08:09:58;;;;;;;;;47.80;36.00;;;;;14.21;48.91;98694.25;6188972;28;96588;-67
2021/11/22 08:13:05;;;;;;;;;45.00;36.00;;;;;14.23;49.11;98702.13;6189334;28;97210;-63
2021/11/22 08:16:09;;;;;;;;;41.67;35.00;;;;;14.22;49.32;98708.63;6186366;28;97800;-63
2021/11/22 08:19:12;;;;;;;;;44.50;35.00;;;;;14.26;49.49;98705.19;6187463;28;96506;-66
2021/11/22 08:22:15;;;;;;;;;43.40;34.40;;;;;14.29;49.35;98710.09;6198473;28;97097;-64
2021/11/22 08:25:21;;;;;;;;;46.50;38.00;;;;;14.25;49.45;98717.09;6199965;28;96686;-66
2021/11/22 08:28:26;;;;;;;;;45.00;36.00;;;;;14.26;49.41;98721.44;6200535;28;97403;-63
2021/11/22 08:31:29;;;;;;;;;43.00;34.00;;;;;14.23;50.92;98719.22;6206003;28;98133;-65
2021/11/22 08:34:33;;;;;;;;;42.50;34.50;;;;;14.16;51.44;98723.19;6213228;28;96617;-66
2021/11/22 08:37:37;;;;;;;;;45.20;35.00;;;;;14.20;50.55;98727.03;6210959;28;96948;-63
2021/11/22 08:40:42;;;;;;;;;44.40;34.80;;;;;14.21;50.29;98723.25;6207537;28;98763;-66
2021/11/22 08:43:47;;;;;;;;;46.60;36.00;;;;;14.21;50.34;98740.34;6211917;28;97426;-65
2021/11/22 08:46:50;;;;;;;;;45.60;34.00;;;;;14.19;50.21;98742.47;6213083;28;97082;-65
2021/11/22 08:49:53;;;;;;;;;43.60;34.20;;;;;14.16;50.25;98739.44;6208055;28;96523;-65
2021/11/22 08:52:57;;;;;;;;;45.00;34.00;;;;;14.18;50.58;98748.97;6185728;28;97164;-65
2021/11/22 08:56:01;;;;;;;;;45.00;34.40;;;;;14.28;51.12;98737.44;6183579;28;96983;-65
2021/11/22 08:59:05;;;;;;;;;42.80;33.60;;;;;14.28;50.53;98743.69;6208763;28;97717;-66
2021/11/22 09:02:10;;;;;;;;;42.40;33.00;;;;;14.30;50.42;98747.00;6174759;28;96865;-67
2021/11/22 09:05:14;;;;;;;;;44.00;34.50;;;;;14.30;50.29;98749.69;6203773;28;96634;-65
2021/11/22 09:08:17;;;;;;;;;41.00;34.00;;;;;14.35;50.33;98740.00;6205007;28;96514;-65
2021/11/22 09:11:21;;;;;;;;;45.00;34.20;;;;;14.38;50.34;98751.19;6209500;28;97816;-64
2021/11/22 09:14:25;;;;;;;;;40.60;33.00;;;;;14.37;50.13;98744.13;6209063;28;97017;-64
2021/11/22 09:17:29;;;;;;;;;41.20;33.00;;;;;14.37;50.27;98748.75;6189202;28;97970;-63
2021/11/22 09:20:33;;;;;;;;;42.40;33.40;;;;;14.33;50.06;98742.94;6191370;28;97310;-67
2021/11/22 09:23:36;;;;;;;;;42.00;34.00;;;;;14.32;50.27;98742.13;6208909;28;97505;-64
2021/11/22 09:26:40;;;;;;;;;46.60;35.00;;;;;14.36;50.39;98744.34;6193851;28;97548;-66
2021/11/22 09:29:44;;;;;;;;;42.40;34.60;;;;;14.35;50.20;98746.25;6207946;28;96577;-66
2021/11/22 09:32:48;;;;;;;;;47.40;37.00;;;;;14.39;50.40;98749.28;6210629;28;97538;-66
2021/11/22 09:35:51;;;;;;;;;44.60;35.60;;;;;14.34;50.37;98747.31;6192418;28;98402;-67
2021/11/22 09:38:55;;;;;;;;;46.20;36.00;;;;;14.41;50.48;98753.41;6199731;28;97619;-66
2021/11/22 09:41:59;;;;;;;;;47.00;36.00;;;;;14.43;50.50;98756.69;6192469;28;98394;-68
2021/11/22 09:45:06;;;;;;;;;45.00;36.00;;;;;14.42;50.31;98756.94;6205322;28;97177;-64
2021/11/22 09:48:09;;;;;;;;;47.00;36.75;;;;;14.45;50.35;98753.72;6190017;28;99747;-66
2021/11/22 09:51:13;;;;;;;;;47.00;37.40;;;;;14.49;50.34;98755.69;6193433;28;96775;-65
2021/11/22 09:54:20;;;;;;;;;47.20;36.00;;;;;14.50;50.74;98767.38;6196392;28;98874;-66
2021/11/22 09:57:23;;;;;;;;;50.00;39.00;;;;;14.53;50.60;98761.44;6193776;28;97884;-64
2021/11/22 10:00:35;;;;;;;;;45.00;36.00;;;;;14.53;50.46;98764.97;6186041;28;97143;-63
2021/11/22 10:03:39;;;;;;;;;47.00;36.00;;;;;14.50;50.70;98770.06;6200371;28;97521;-65
2021/11/22 10:06:46;;;;;;;;;48.20;37.60;;;;;14.47;50.69;98767.84;6195228;28;96660;-68
2021/11/22 10:09:51;;;;;;;;;45.40;37.40;;;;;14.47;50.70;98759.72;6210713;28;97169;-65
2021/11/22 10:12:59;;;;;;;;;47.00;37.50;;;;;14.52;50.79;98757.88;6193566;28;99718;-69
2021/11/22 10:16:22;;;;;;;;;49.80;38.00;;;;;14.54;50.70;98760.38;6211598;28;96528;-66
2021/11/22 10:19:27;;;;;;;;;49.00;39.00;;;;;14.44;50.34;98738.53;6210358;28;97041;-65
2021/11/22 10:22:40;;;;;;;;;49.80;39.00;;;;;14.39;50.80;98724.88;6210960;28;97548;-65
2021/11/22 10:25:44;;;;;;;;;49.25;39.00;;;;;14.59;50.92;98763.16;6211539;28;96743;-66
2021/11/22 10:28:50;;;;;;;;;48.60;38.00;;;;;14.58;50.60;98753.38;6184699;28;97262;-65
2021/11/22 10:31:56;;;;;;;;;46.40;36.00;;;;;14.59;50.75;98763.97;6204231;28;96709;-64
2021/11/22 10:35:15;;;;;;;;;47.80;36.40;;;;;14.52;50.92;98763.31;6209863;28;97234;-64
2021/11/22 10:38:20;;;;;;;;;30.20;25.00;;;;;14.50;50.33;98762.75;6209837;28;96924;-65
2021/11/22 10:41:26;;;;;;;;;15.00;14.00;;;;;14.50;50.11;98770.06;6208390;28;96744;-65
2021/11/22 10:44:31;;;;;;;;;16.00;14.00;;;;;14.49;50.27;98768.44;6194144;28;97449;-67
2021/11/22 10:47:36;;;;;;;;;10.00;9.60;;;;;14.45;50.01;98772.72;6210993;28;96456;-66
2021/11/22 10:50:47;;;;;;;;;7.20;6.00;;;;;14.39;49.68;98776.41;6191725;28;97866;-63
2021/11/22 10:53:53;;;;;;;;;6.40;6.00;;;;;14.37;49.67;98781.28;6208234;28;96520;-63
2021/11/22 10:56:56;;;;;;;;;4.60;4.00;;;;;14.33;49.15;98778.19;6208258;28;96597;-64
2021/11/22 10:59:59;;;;;;;;;8.00;6.00;;;;;14.31;49.43;98781.19;6211101;28;98096;-67
2021/11/22 11:03:07;;;;;;;;;5.00;5.00;;;;;14.25;49.34;98787.59;6211511;28;97409;-65
2021/11/22 11:06:11;;;;;;;;;6.60;5.60;;;;;14.21;49.46;98788.34;6211712;28;96730;-65
2021/11/22 11:09:20;;;;;;;;;6.00;6.00;;;;;14.26;49.29;98791.13;6210734;28;97589;-63
2021/11/22 11:12:25;;;;;;;;;7.00;5.25;;;;;14.24;49.28;98785.13;6210876;28;97035;-63
2021/11/22 11:15:30;;;;;;;;;6.00;5.00;;;;;14.27;48.56;98787.31;6210913;28;97262;-66
2021/11/22 11:18:35;;;;;;;;;5.00;5.00;;;;;14.29;49.15;98796.03;6192394;28;97064;-63
2021/11/22 11:21:41;;;;;;;;;7.50;7.00;;;;;14.30;48.85;98798.50;6192289;28;96698;-66
2021/11/22 11:24:44;;;;;;;;;7.00;6.40;;;;;14.37;49.17;98792.13;6209404;28;96574;-63
2021/11/22 11:28:03;;;;;;;;;8.00;6.00;;;;;14.35;49.05;98791.53;6175450;28;96947;-64
2021/11/22 11:31:06;;;;;;;;;7.00;6.00;;;;;14.33;48.91;98789.88;6191725;28;96968;-67
2021/11/22 11:34:13;;;;;;;;;7.00;6.00;;;;;14.34;49.31;98793.41;6220365;28;97586;-67
2021/11/22 11:37:52;;;;;;;;;8.00;7.00;;;;;14.32;48.38;98800.97;6168141;28;98468;-64
2021/11/22 11:41:05;;;;;;;;;8.00;7.00;;;;;14.36;48.91;98799.44;6169300;28;97631;-66
2021/11/22 11:44:30;;;;;;;;;10.00;8.20;;;;;14.41;48.68;98807.66;6210158;28;97643;-65
2021/11/22 11:47:48;;;;;;;;;8.00;7.00;;;;;14.48;48.40;98807.47;6190937;28;97771;-65
2021/11/22 11:51:06;;;;;;;;;7.80;6.80;;;;;14.45;48.12;98808.81;6209730;28;97652;-65
2021/11/22 11:54:30;;;;;;;;;6.20;5.80;;;;;14.39;48.08;98809.78;6213361;28;97123;-66
2021/11/22 11:57:33;;;;;;;;;8.00;7.00;;;;;14.33;48.09;98811.56;6210524;28;97399;-64
2021/11/22 12:00:36;;;;;;;;;7.00;7.00;;;;;14.39;48.20;98819.81;6212307;28;97446;-65
2021/11/22 12:04:12;;;;;;;;;9.00;7.00;;;;;14.37;48.08;98814.63;6212464;28;97268;-64
2021/11/22 12:07:24;;;;;;;;;8.60;6.80;;;;;14.44;47.97;98823.44;6192296;28;97243;-66
2021/11/22 12:10:29;;;;;;;;;7.00;6.50;;;;;14.47;48.31;98813.97;6212269;28;97575;-65
2021/11/22 12:13:47;;;;;;;;;9.00;7.40;;;;;14.50;48.46;98822.44;6212226;28;96585;-64
2021/11/22 12:16:51;;;;;;;;;8.60;7.00;;;;;14.45;48.35;98821.53;6211930;28;97855;-64
2021/11/22 12:19:55;;;;;;;;;7.80;7.40;;;;;14.51;48.93;98825.97;6178808;28;97306;-68
2021/11/22 12:23:01;;;;;;;;;11.00;9.00;;;;;14.53;48.67;98830.06;6180135;28;96863;-68
2021/11/22 12:26:05;;;;;;;;;8.20;8.20;;;;;14.54;48.93;98831.72;6212284;28;97602;-67
2021/11/22 12:29:09;;;;;;;;;11.60;10.00;;;;;14.57;49.13;98831.22;6196312;28;97461;-69
2021/11/22 12:32:25;;;;;;;;;9.00;8.40;;;;;14.46;48.84;98826.72;6210823;28;97462;-67
2021/11/22 12:35:44;;;;;;;;;9.50;8.00;;;;;14.64;48.47;98836.47;6210429;28;97307;-67
2021/11/22 12:38:50;;;;;;;;;9.00;7.40;;;;;14.65;48.36;98836.25;6193004;28;97239;-67
2021/11/22 12:42:19;;;;;;;;;7.20;7.00;;;;;14.47;48.29;98831.06;6210731;28;96670;-68
2021/11/22 12:45:23;;;;;;;;;9.00;8.40;;;;;14.42;48.44;98847.25;6211274;28;96769;-68
2021/11/22 12:48:27;;;;;;;;;6.00;5.40;;;;;14.39;48.72;98847.75;6212078;28;96829;-69
2021/11/22 12:51:44;;;;;;;;;6.00;5.00;;;;;14.25;48.72;98843.72;6178000;28;97752;-67
2021/11/22 12:54:56;;;;;;;;;6.20;5.80;;;;;14.26;49.00;98861.63;6209586;28;97567;-65
2021/11/22 12:58:11;;;;;;;;;5.00;5.00;;;;;14.23;48.86;98862.94;6211334;28;96445;-68
2021/11/22 13:01:25;;;;;;;;;4.00;4.00;;;;;14.15;48.70;98862.50;6195212;28;99585;-71
2021/11/22 13:04:42;;;;;;;;;6.00;4.00;;;;;14.18;49.24;98870.97;6212259;28;96686;-63
2021/11/22 13:07:47;;;;;;;;;5.00;4.00;;;;;14.18;48.29;98881.81;6213500;28;97454;-70
2021/11/22 13:10:54;;;;;;;;;3.40;3.00;;;;;14.17;47.96;98876.66;6194859;28;96723;-69
2021/11/22 13:14:06;;;;;;;;;4.00;4.00;;;;;14.15;47.67;98881.50;6213554;28;96406;-68
2021/11/22 13:17:10;;;;;;;;;4.80;4.00;;;;;14.13;48.02;98876.31;6213572;28;96657;-66
2021/11/22 13:20:13;;;;;;;;;6.00;5.00;;;;;14.09;48.09;98887.88;6212908;28;96550;-69
2021/11/22 13:23:19;;;;;;;;;4.00;4.00;;;;;14.09;48.33;98893.31;6213058;28;97980;-66
2021/11/22 13:26:27;;;;;;;;;5.80;5.20;;;;;14.09;48.73;98890.59;6212465;28;97431;-70
2021/11/22 13:29:31;;;;;;;;;5.00;4.00;;;;;14.06;48.53;98902.78;6195527;28;96735;-72
2021/11/22 13:32:35;;;;;;;;;5.00;5.00;;;;;14.05;48.65;98900.28;6194167;28;97816;-67
2021/11/22 13:35:38;;;;;;;;;7.25;6.00;;;;;14.05;48.76;98903.00;6212704;28;96461;-71
2021/11/22 13:38:42;;;;;;;;;5.00;5.00;;;;;14.02;48.86;98896.19;6213239;28;97513;-69
2021/11/22 13:42:02;;;;;;;;;6.25;5.25;;;;;14.06;48.81;98902.78;6213114;28;97445;-69
2021/11/22 13:45:06;;;;;;;;;6.40;6.00;;;;;14.07;48.96;98909.84;6203935;28;97609;-69
2021/11/22 13:48:09;;;;;;;;;5.20;5.00;;;;;14.05;49.23;98909.25;6212652;28;96755;-69
2021/11/22 13:51:14;;;;;;;;;7.00;7.00;;;;;14.00;49.05;98913.75;6213224;28;96705;-67
2021/11/22 13:54:20;;;;;;;;;6.20;6.00;;;;;14.00;49.19;98919.16;6194864;28;97023;-67
2021/11/22 13:57:25;;;;;;;;;6.00;5.00;;;;;13.98;49.24;98927.53;6212536;28;96593;-68
2021/11/22 14:00:29;;;;;;;;;9.60;7.60;;;;;13.95;49.15;98924.50;6194403;28;98835;-68
2021/11/22 14:03:35;;;;;;;;;8.00;7.60;;;;;13.95;49.08;98929.91;6204853;28;96653;-69
2021/11/22 14:06:40;;;;;;;;;6.25;6.00;;;;;13.94;48.79;98929.09;6212719;28;96509;-68
2021/11/22 14:09:44;;;;;;;;;5.60;5.60;;;;;13.97;49.11;98930.50;6204019;28;97475;-69
2021/11/22 14:12:49;;;;;;;;;8.50;8.00;;;;;13.96;49.14;98937.00;6193855;28;97650;-70
2021/11/22 14:15:53;;;;;;;;;7.00;7.00;;;;;13.93;48.79;98934.78;6167097;28;98379;-69
2021/11/22 14:18:57;;;;;;;;;8.25;7.00;;;;;13.89;48.76;98940.66;6192593;28;97069;-68